sensor_id;sensor_type;location;lat;lon;timestamp;temperature;humidity
5689;DHT22;2869;50.432;8.680;2023-06-22T00:02:00;21.50;99.90
5689;DHT22;2869;50.432;8.680;2023-06-22T00:04:27;21.50;99.90
5689;DHT22;2869;50.432;8.680;2023-06-22T00:06:54;21.50;99.90
5689;DHT22;2869;50.432;8.680;2023-06-22T00:09:20;21.40;99.90
5689;DHT22;2869;50.432;8.680;2023-06-22T00:11:47;21.30;99.90
5689;DHT22;2869;50.432;8.680;2023-06-22T00:14:14;21.20;99.90
5689;DHT22;2869;50.432;8.680;2023-06-22T00:16:42;21.20;99.90
5689;DHT22;2869;50.432;8.680;2023-06-22T00:19:09;21.20;99.90
5689;DHT22;2869;50.432;8.680;2023-06-22T00:21:37;21.30;99.90
5689;DHT22;2869;50.432;8.680;2023-06-22T00:24:04;21.30;99.90
5689;DHT22;2869;50.432;8.680;2023-06-22T00:26:32;21.30;99.90
5689;DHT22;2869;50.432;8.680;2023-06-22T00:28:58;21.40;99.90
5689;DHT22;2869;50.432;8.680;2023-06-22T00:31:25;21.30;99.90
5689;DHT22;2869;50.432;8.680;2023-06-22T00:33:53;21.40;99.90
5689;DHT22;2869;50.432;8.680;2023-06-22T00:36:20;21.20;99.90
5689;DHT22;2869;50.432;8.680;2023-06-22T00:38:46;21.30;99.90
5689;DHT22;2869;50.432;8.680;2023-06-22T00:41:16;21.10;99.90
5689;DHT22;2869;50.432;8.680;2023-06-22T00:43:42;21.10;99.90
5689;DHT22;2869;50.432;8.680;2023-06-22T00:46:09;21.10;99.90
5689;DHT22;2869;50.432;8.680;2023-06-22T00:48:36;21.10;99.90
5689;DHT22;2869;50.432;8.680;2023-06-22T00:51:04;21.20;99.90
5689;DHT22;2869;50.432;8.680;2023-06-22T00:53:31;21.20;99.90
5689;DHT22;2869;50.432;8.680;2023-06-22T00:56:00;21.20;99.90
5689;DHT22;2869;50.432;8.680;2023-06-22T00:58:28;21.20;99.90
5689;DHT22;2869;50.432;8.680;2023-06-22T01:00:55;21.30;99.90
5689;DHT22;2869;50.432;8.680;2023-06-22T01:03:23;21.30;99.90
5689;DHT22;2869;50.432;8.680;2023-06-22T01:05:50;21.30;99.90
5689;DHT22;2869;50.432;8.680;2023-06-22T01:08:23;21.30;99.90
5689;DHT22;2869;50.432;8.680;2023-06-22T01:10:57;21.30;99.90
5689;DHT22;2869;50.432;8.680;2023-06-22T01:13:29;21.30;99.90
5689;DHT22;2869;50.432;8.680;2023-06-22T01:16:03;21.20;99.90
5689;DHT22;2869;50.432;8.680;2023-06-22T01:18:31;21.20;99.90
5689;DHT22;2869;50.432;8.680;2023-06-22T01:21:02;21.10;99.90
5689;DHT22;2869;50.432;8.680;2023-06-22T01:23:46;21.00;99.90
5689;DHT22;2869;50.432;8.680;2023-06-22T01:26:19;20.90;99.90
5689;DHT22;2869;50.432;8.680;2023-06-22T01:28:49;20.70;99.90
5689;DHT22;2869;50.432;8.680;2023-06-22T01:31:18;20.70;99.90
5689;DHT22;2869;50.432;8.680;2023-06-22T01:33:49;20.60;99.90
5689;DHT22;2869;50.432;8.680;2023-06-22T01:36:17;20.60;99.90
5689;DHT22;2869;50.432;8.680;2023-06-22T01:38:45;20.50;99.90
5689;DHT22;2869;50.432;8.680;2023-06-22T01:41:12;20.50;99.90
5689;DHT22;2869;50.432;8.680;2023-06-22T01:43:40;20.50;99.90
5689;DHT22;2869;50.432;8.680;2023-06-22T01:46:08;20.50;99.90
5689;DHT22;2869;50.432;8.680;2023-06-22T01:48:35;20.40;99.90
5689;DHT22;2869;50.432;8.680;2023-06-22T01:51:02;20.40;99.90
5689;DHT22;2869;50.432;8.680;2023-06-22T01:53:29;20.40;99.90
5689;DHT22;2869;50.432;8.680;2023-06-22T01:55:56;20.50;99.90
5689;DHT22;2869;50.432;8.680;2023-06-22T01:58:26;20.50;99.90
5689;DHT22;2869;50.432;8.680;2023-06-22T02:00:56;20.40;99.90
5689;DHT22;2869;50.432;8.680;2023-06-22T02:03:30;20.40;99.90
5689;DHT22;2869;50.432;8.680;2023-06-22T02:06:03;20.40;99.90
5689;DHT22;2869;50.432;8.680;2023-06-22T02:08:40;20.30;99.90
5689;DHT22;2869;50.432;8.680;2023-06-22T02:11:08;20.30;99.90
5689;DHT22;2869;50.432;8.680;2023-06-22T02:13:36;20.20;99.90
5689;DHT22;2869;50.432;8.680;2023-06-22T02:16:03;20.20;99.90
5689;DHT22;2869;50.432;8.680;2023-06-22T02:18:32;20.10;99.90
5689;DHT22;2869;50.432;8.680;2023-06-22T02:21:01;20.10;99.90
5689;DHT22;2869;50.432;8.680;2023-06-22T02:23:27;20.00;99.90
5689;DHT22;2869;50.432;8.680;2023-06-22T02:25:54;20.10;99.90
5689;DHT22;2869;50.432;8.680;2023-06-22T02:28:21;20.10;99.90
5689;DHT22;2869;50.432;8.680;2023-06-22T02:30:47;20.10;99.90
5689;DHT22;2869;50.432;8.680;2023-06-22T02:33:14;20.10;99.90
5689;DHT22;2869;50.432;8.680;2023-06-22T02:35:42;20.10;99.90
5689;DHT22;2869;50.432;8.680;2023-06-22T02:38:11;20.10;99.90
5689;DHT22;2869;50.432;8.680;2023-06-22T02:40:37;20.10;99.90
5689;DHT22;2869;50.432;8.680;2023-06-22T02:43:04;20.00;99.90
5689;DHT22;2869;50.432;8.680;2023-06-22T02:45:31;20.00;99.90
5689;DHT22;2869;50.432;8.680;2023-06-22T02:47:58;20.00;99.90
5689;DHT22;2869;50.432;8.680;2023-06-22T02:50:24;19.90;99.90
5689;DHT22;2869;50.432;8.680;2023-06-22T02:52:52;19.90;99.90
5689;DHT22;2869;50.432;8.680;2023-06-22T02:55:19;19.80;99.90
5689;DHT22;2869;50.432;8.680;2023-06-22T02:57:46;19.80;99.90
5689;DHT22;2869;50.432;8.680;2023-06-22T03:00:14;19.80;99.90
5689;DHT22;2869;50.432;8.680;2023-06-22T03:02:43;19.90;99.90
5689;DHT22;2869;50.432;8.680;2023-06-22T03:05:10;19.90;99.90
5689;DHT22;2869;50.432;8.680;2023-06-22T03:07:39;19.90;99.90
5689;DHT22;2869;50.432;8.680;2023-06-22T03:10:09;19.90;99.90
5689;DHT22;2869;50.432;8.680;2023-06-22T03:12:36;19.90;99.90
5689;DHT22;2869;50.432;8.680;2023-06-22T03:15:04;19.90;99.90
5689;DHT22;2869;50.432;8.680;2023-06-22T03:17:30;19.90;99.90
5689;DHT22;2869;50.432;8.680;2023-06-22T03:19:57;19.90;99.90
5689;DHT22;2869;50.432;8.680;2023-06-22T03:22:23;19.90;99.90
5689;DHT22;2869;50.432;8.680;2023-06-22T03:24:50;19.80;99.90
5689;DHT22;2869;50.432;8.680;2023-06-22T03:27:18;19.90;99.90
5689;DHT22;2869;50.432;8.680;2023-06-22T03:29:45;19.80;99.90
5689;DHT22;2869;50.432;8.680;2023-06-22T03:32:11;19.80;99.90
5689;DHT22;2869;50.432;8.680;2023-06-22T03:34:38;19.80;99.90
5689;DHT22;2869;50.432;8.680;2023-06-22T03:37:04;19.80;99.90
5689;DHT22;2869;50.432;8.680;2023-06-22T03:39:31;19.80;99.90
5689;DHT22;2869;50.432;8.680;2023-06-22T03:41:58;19.80;99.90
5689;DHT22;2869;50.432;8.680;2023-06-22T03:44:26;19.80;99.90
5689;DHT22;2869;50.432;8.680;2023-06-22T03:46:53;19.70;99.90
5689;DHT22;2869;50.432;8.680;2023-06-22T03:49:20;19.70;99.90
5689;DHT22;2869;50.432;8.680;2023-06-22T03:51:46;19.70;99.90
5689;DHT22;2869;50.432;8.680;2023-06-22T03:54:13;19.70;99.90
5689;DHT22;2869;50.432;8.680;2023-06-22T03:56:40;19.80;99.90
5689;DHT22;2869;50.432;8.680;2023-06-22T03:59:06;19.80;99.90
5689;DHT22;2869;50.432;8.680;2023-06-22T04:01:34;19.80;99.90
5689;DHT22;2869;50.432;8.680;2023-06-22T04:04:02;19.80;99.90
5689;DHT22;2869;50.432;8.680;2023-06-22T04:06:28;19.90;99.90
5689;DHT22;2869;50.432;8.680;2023-06-22T04:08:55;19.80;99.90
5689;DHT22;2869;50.432;8.680;2023-06-22T04:11:22;19.80;99.90
5689;DHT22;2869;50.432;8.680;2023-06-22T04:13:48;19.80;99.90
5689;DHT22;2869;50.432;8.680;2023-06-22T04:16:17;19.80;99.90
5689;DHT22;2869;50.432;8.680;2023-06-22T04:18:45;19.80;99.90
5689;DHT22;2869;50.432;8.680;2023-06-22T04:21:13;19.80;99.90
5689;DHT22;2869;50.432;8.680;2023-06-22T04:23:40;19.80;99.90
5689;DHT22;2869;50.432;8.680;2023-06-22T04:26:06;19.80;99.90
5689;DHT22;2869;50.432;8.680;2023-06-22T04:28:33;19.80;99.90
5689;DHT22;2869;50.432;8.680;2023-06-22T04:31:00;19.80;99.90
5689;DHT22;2869;50.432;8.680;2023-06-22T04:33:27;19.80;99.90
5689;DHT22;2869;50.432;8.680;2023-06-22T04:35:56;19.90;99.90
5689;DHT22;2869;50.432;8.680;2023-06-22T04:38:23;19.90;99.90
5689;DHT22;2869;50.432;8.680;2023-06-22T04:40:50;19.90;99.90
5689;DHT22;2869;50.432;8.680;2023-06-22T04:43:18;19.90;99.90
5689;DHT22;2869;50.432;8.680;2023-06-22T04:45:45;20.00;99.90
5689;DHT22;2869;50.432;8.680;2023-06-22T04:48:12;20.00;99.90
5689;DHT22;2869;50.432;8.680;2023-06-22T04:50:41;20.00;99.90
5689;DHT22;2869;50.432;8.680;2023-06-22T04:53:09;20.00;99.90
5689;DHT22;2869;50.432;8.680;2023-06-22T04:55:38;20.00;99.90
5689;DHT22;2869;50.432;8.680;2023-06-22T04:58:07;20.00;99.90
5689;DHT22;2869;50.432;8.680;2023-06-22T05:00:33;20.00;99.90
5689;DHT22;2869;50.432;8.680;2023-06-22T05:03:01;20.10;99.90
5689;DHT22;2869;50.432;8.680;2023-06-22T05:05:29;20.10;99.90
5689;DHT22;2869;50.432;8.680;2023-06-22T05:07:56;20.10;99.90
5689;DHT22;2869;50.432;8.680;2023-06-22T05:10:27;20.10;99.90
5689;DHT22;2869;50.432;8.680;2023-06-22T05:12:53;20.20;99.90
5689;DHT22;2869;50.432;8.680;2023-06-22T05:15:20;20.20;99.90
5689;DHT22;2869;50.432;8.680;2023-06-22T05:17:48;20.20;99.90
5689;DHT22;2869;50.432;8.680;2023-06-22T05:20:15;20.30;99.90
5689;DHT22;2869;50.432;8.680;2023-06-22T05:22:43;20.40;99.90
5689;DHT22;2869;50.432;8.680;2023-06-22T05:25:10;20.40;99.90
5689;DHT22;2869;50.432;8.680;2023-06-22T05:27:39;20.30;99.90
5689;DHT22;2869;50.432;8.680;2023-06-22T05:30:06;20.50;99.90
5689;DHT22;2869;50.432;8.680;2023-06-22T05:32:33;20.60;99.90
5689;DHT22;2869;50.432;8.680;2023-06-22T05:35:00;20.70;99.90
5689;DHT22;2869;50.432;8.680;2023-06-22T05:37:26;20.70;99.90
5689;DHT22;2869;50.432;8.680;2023-06-22T05:39:53;20.80;99.90
5689;DHT22;2869;50.432;8.680;2023-06-22T05:42:20;20.90;99.90
5689;DHT22;2869;50.432;8.680;2023-06-22T05:44:48;21.00;99.90
5689;DHT22;2869;50.432;8.680;2023-06-22T05:47:15;21.10;99.90
5689;DHT22;2869;50.432;8.680;2023-06-22T05:49:43;21.20;99.90
5689;DHT22;2869;50.432;8.680;2023-06-22T05:52:09;21.30;99.90
5689;DHT22;2869;50.432;8.680;2023-06-22T05:54:37;21.30;99.90
5689;DHT22;2869;50.432;8.680;2023-06-22T05:57:04;21.40;99.90
5689;DHT22;2869;50.432;8.680;2023-06-22T05:59:31;21.50;99.90
5689;DHT22;2869;50.432;8.680;2023-06-22T06:01:59;21.60;99.90
5689;DHT22;2869;50.432;8.680;2023-06-22T06:04:25;21.70;99.90
5689;DHT22;2869;50.432;8.680;2023-06-22T06:06:52;21.80;99.90
5689;DHT22;2869;50.432;8.680;2023-06-22T06:09:19;21.90;99.90
5689;DHT22;2869;50.432;8.680;2023-06-22T06:11:45;22.10;99.90
5689;DHT22;2869;50.432;8.680;2023-06-22T06:14:12;22.20;99.90
5689;DHT22;2869;50.432;8.680;2023-06-22T06:16:39;22.40;99.90
5689;DHT22;2869;50.432;8.680;2023-06-22T06:19:07;22.60;99.90
5689;DHT22;2869;50.432;8.680;2023-06-22T06:21:34;22.80;99.90
5689;DHT22;2869;50.432;8.680;2023-06-22T06:24:01;23.00;99.90
5689;DHT22;2869;50.432;8.680;2023-06-22T06:26:28;23.00;99.90
5689;DHT22;2869;50.432;8.680;2023-06-22T06:28:55;23.00;99.90
5689;DHT22;2869;50.432;8.680;2023-06-22T06:31:22;23.10;99.90
5689;DHT22;2869;50.432;8.680;2023-06-22T06:33:49;23.20;99.90
5689;DHT22;2869;50.432;8.680;2023-06-22T06:36:17;23.40;99.90
5689;DHT22;2869;50.432;8.680;2023-06-22T06:38:43;23.50;99.90
5689;DHT22;2869;50.432;8.680;2023-06-22T06:41:12;23.80;99.90
5689;DHT22;2869;50.432;8.680;2023-06-22T06:43:39;24.10;99.90
5689;DHT22;2869;50.432;8.680;2023-06-22T06:46:05;24.30;99.90
5689;DHT22;2869;50.432;8.680;2023-06-22T06:48:32;24.40;99.90
5689;DHT22;2869;50.432;8.680;2023-06-22T06:50:59;24.60;99.90
5689;DHT22;2869;50.432;8.680;2023-06-22T06:53:26;24.80;99.90
5689;DHT22;2869;50.432;8.680;2023-06-22T06:55:54;24.90;99.90
5689;DHT22;2869;50.432;8.680;2023-06-22T06:58:20;25.10;99.90
5689;DHT22;2869;50.432;8.680;2023-06-22T07:00:48;25.20;99.90
5689;DHT22;2869;50.432;8.680;2023-06-22T07:03:15;25.30;99.90
5689;DHT22;2869;50.432;8.680;2023-06-22T07:05:41;25.50;99.90
5689;DHT22;2869;50.432;8.680;2023-06-22T07:08:08;25.70;99.90
5689;DHT22;2869;50.432;8.680;2023-06-22T07:10:36;26.00;99.90
5689;DHT22;2869;50.432;8.680;2023-06-22T07:13:02;26.00;99.90
5689;DHT22;2869;50.432;8.680;2023-06-22T07:15:29;26.00;99.90
5689;DHT22;2869;50.432;8.680;2023-06-22T07:17:56;26.00;99.90
5689;DHT22;2869;50.432;8.680;2023-06-22T07:20:22;26.00;99.90
5689;DHT22;2869;50.432;8.680;2023-06-22T07:22:49;26.10;99.90
5689;DHT22;2869;50.432;8.680;2023-06-22T07:25:15;26.10;99.90
5689;DHT22;2869;50.432;8.680;2023-06-22T07:27:56;26.20;99.90
5689;DHT22;2869;50.432;8.680;2023-06-22T07:30:22;26.20;99.90
5689;DHT22;2869;50.432;8.680;2023-06-22T07:32:49;26.20;99.90
5689;DHT22;2869;50.432;8.680;2023-06-22T07:35:16;26.30;99.90
5689;DHT22;2869;50.432;8.680;2023-06-22T07:37:42;26.50;99.90
5689;DHT22;2869;50.432;8.680;2023-06-22T07:40:10;26.70;99.90
5689;DHT22;2869;50.432;8.680;2023-06-22T07:42:36;26.90;99.90
5689;DHT22;2869;50.432;8.680;2023-06-22T07:45:06;27.10;99.90
5689;DHT22;2869;50.432;8.680;2023-06-22T07:47:33;27.20;99.90
5689;DHT22;2869;50.432;8.680;2023-06-22T07:50:01;27.40;99.90
5689;DHT22;2869;50.432;8.680;2023-06-22T07:52:29;27.60;99.90
5689;DHT22;2869;50.432;8.680;2023-06-22T07:54:55;27.80;99.90
5689;DHT22;2869;50.432;8.680;2023-06-22T07:57:22;28.00;99.90
5689;DHT22;2869;50.432;8.680;2023-06-22T07:59:57;28.20;99.90
5689;DHT22;2869;50.432;8.680;2023-06-22T08:02:25;28.30;99.90
5689;DHT22;2869;50.432;8.680;2023-06-22T08:04:52;28.30;99.90
5689;DHT22;2869;50.432;8.680;2023-06-22T08:07:18;28.50;99.90
5689;DHT22;2869;50.432;8.680;2023-06-22T08:09:47;28.60;99.90
5689;DHT22;2869;50.432;8.680;2023-06-22T08:12:14;28.70;99.90
5689;DHT22;2869;50.432;8.680;2023-06-22T08:14:42;28.70;99.90
5689;DHT22;2869;50.432;8.680;2023-06-22T08:17:08;28.80;99.90
5689;DHT22;2869;50.432;8.680;2023-06-22T08:19:36;29.00;99.90
5689;DHT22;2869;50.432;8.680;2023-06-22T08:22:04;29.00;99.90
5689;DHT22;2869;50.432;8.680;2023-06-22T08:24:30;29.00;99.90
5689;DHT22;2869;50.432;8.680;2023-06-22T08:26:57;28.90;99.90
5689;DHT22;2869;50.432;8.680;2023-06-22T08:29:24;29.20;99.90
5689;DHT22;2869;50.432;8.680;2023-06-22T08:31:50;29.40;99.90
5689;DHT22;2869;50.432;8.680;2023-06-22T08:34:17;29.40;99.90
5689;DHT22;2869;50.432;8.680;2023-06-22T08:36:48;29.40;99.90
5689;DHT22;2869;50.432;8.680;2023-06-22T08:39:17;29.50;99.90
5689;DHT22;2869;50.432;8.680;2023-06-22T08:41:43;29.50;99.90
5689;DHT22;2869;50.432;8.680;2023-06-22T08:44:10;29.60;99.90
5689;DHT22;2869;50.432;8.680;2023-06-22T08:46:37;29.70;99.90
5689;DHT22;2869;50.432;8.680;2023-06-22T08:49:05;29.90;99.90
5689;DHT22;2869;50.432;8.680;2023-06-22T08:51:32;30.00;99.90
5689;DHT22;2869;50.432;8.680;2023-06-22T08:54:00;30.10;99.90
5689;DHT22;2869;50.432;8.680;2023-06-22T08:56:27;30.20;99.90
5689;DHT22;2869;50.432;8.680;2023-06-22T08:58:54;30.10;99.90
5689;DHT22;2869;50.432;8.680;2023-06-22T09:01:22;30.10;99.90
5689;DHT22;2869;50.432;8.680;2023-06-22T09:03:48;29.70;99.90
5689;DHT22;2869;50.432;8.680;2023-06-22T09:06:21;29.50;99.90
5689;DHT22;2869;50.432;8.680;2023-06-22T09:08:47;29.50;99.90
5689;DHT22;2869;50.432;8.680;2023-06-22T09:11:16;29.90;99.90
5689;DHT22;2869;50.432;8.680;2023-06-22T09:13:42;30.10;99.90
5689;DHT22;2869;50.432;8.680;2023-06-22T09:16:10;30.10;99.90
5689;DHT22;2869;50.432;8.680;2023-06-22T09:18:37;30.20;99.90
5689;DHT22;2869;50.432;8.680;2023-06-22T09:21:03;30.10;99.90
5689;DHT22;2869;50.432;8.680;2023-06-22T09:23:30;29.90;99.90
5689;DHT22;2869;50.432;8.680;2023-06-22T09:25:57;29.70;99.90
5689;DHT22;2869;50.432;8.680;2023-06-22T09:28:24;29.40;99.90
5689;DHT22;2869;50.432;8.680;2023-06-22T09:30:51;29.10;99.90
5689;DHT22;2869;50.432;8.680;2023-06-22T09:33:24;29.00;99.90
5689;DHT22;2869;50.432;8.680;2023-06-22T09:35:51;28.60;99.90
5689;DHT22;2869;50.432;8.680;2023-06-22T09:38:17;28.70;99.90
5689;DHT22;2869;50.432;8.680;2023-06-22T09:40:44;29.10;99.90
5689;DHT22;2869;50.432;8.680;2023-06-22T09:43:11;29.50;99.90
5689;DHT22;2869;50.432;8.680;2023-06-22T09:45:39;29.90;99.90
5689;DHT22;2869;50.432;8.680;2023-06-22T09:48:06;30.10;99.90
5689;DHT22;2869;50.432;8.680;2023-06-22T09:50:32;30.10;99.90
5689;DHT22;2869;50.432;8.680;2023-06-22T09:52:59;30.00;99.90
5689;DHT22;2869;50.432;8.680;2023-06-22T09:55:25;29.80;99.90
5689;DHT22;2869;50.432;8.680;2023-06-22T09:57:52;29.90;99.90
5689;DHT22;2869;50.432;8.680;2023-06-22T10:00:20;29.60;99.90
5689;DHT22;2869;50.432;8.680;2023-06-22T10:02:48;29.70;99.90
5689;DHT22;2869;50.432;8.680;2023-06-22T10:05:16;29.60;99.90
5689;DHT22;2869;50.432;8.680;2023-06-22T10:07:42;29.50;99.90
5689;DHT22;2869;50.432;8.680;2023-06-22T10:10:09;29.40;99.90
5689;DHT22;2869;50.432;8.680;2023-06-22T10:12:36;29.40;99.90
5689;DHT22;2869;50.432;8.680;2023-06-22T10:15:03;29.50;99.90
5689;DHT22;2869;50.432;8.680;2023-06-22T10:17:30;29.70;99.90
5689;DHT22;2869;50.432;8.680;2023-06-22T10:19:58;29.60;99.90
5689;DHT22;2869;50.432;8.680;2023-06-22T10:22:26;29.60;99.90
5689;DHT22;2869;50.432;8.680;2023-06-22T10:24:52;29.60;99.90
5689;DHT22;2869;50.432;8.680;2023-06-22T10:27:19;30.00;99.90
5689;DHT22;2869;50.432;8.680;2023-06-22T10:29:46;30.20;99.90
5689;DHT22;2869;50.432;8.680;2023-06-22T10:32:12;30.20;99.90
5689;DHT22;2869;50.432;8.680;2023-06-22T10:34:39;30.10;99.90
5689;DHT22;2869;50.432;8.680;2023-06-22T10:37:07;30.30;99.90
5689;DHT22;2869;50.432;8.680;2023-06-22T10:39:34;30.30;99.90
5689;DHT22;2869;50.432;8.680;2023-06-22T10:42:00;30.30;99.90
5689;DHT22;2869;50.432;8.680;2023-06-22T10:44:27;30.50;99.90
5689;DHT22;2869;50.432;8.680;2023-06-22T10:46:53;30.50;99.90
5689;DHT22;2869;50.432;8.680;2023-06-22T10:49:20;30.40;99.90
5689;DHT22;2869;50.432;8.680;2023-06-22T10:51:47;30.40;99.90
5689;DHT22;2869;50.432;8.680;2023-06-22T10:54:15;30.60;99.90
5689;DHT22;2869;50.432;8.680;2023-06-22T10:56:43;30.60;99.90
5689;DHT22;2869;50.432;8.680;2023-06-22T10:59:10;30.40;99.90
5689;DHT22;2869;50.432;8.680;2023-06-22T11:01:37;30.40;99.90
5689;DHT22;2869;50.432;8.680;2023-06-22T11:04:03;30.40;99.90
5689;DHT22;2869;50.432;8.680;2023-06-22T11:06:30;30.50;99.90
5689;DHT22;2869;50.432;8.680;2023-06-22T11:08:57;30.80;99.90
5689;DHT22;2869;50.432;8.680;2023-06-22T11:11:25;31.00;99.90
5689;DHT22;2869;50.432;8.680;2023-06-22T11:13:52;30.80;99.90
5689;DHT22;2869;50.432;8.680;2023-06-22T11:16:19;30.80;99.90
5689;DHT22;2869;50.432;8.680;2023-06-22T11:18:45;30.70;99.90
5689;DHT22;2869;50.432;8.680;2023-06-22T11:21:12;30.60;99.90
5689;DHT22;2869;50.432;8.680;2023-06-22T11:23:38;30.60;99.90
5689;DHT22;2869;50.432;8.680;2023-06-22T11:26:05;30.60;99.90
5689;DHT22;2869;50.432;8.680;2023-06-22T11:28:33;30.60;99.90
5689;DHT22;2869;50.432;8.680;2023-06-22T11:31:00;30.60;99.90
5689;DHT22;2869;50.432;8.680;2023-06-22T11:33:27;30.80;99.90
5689;DHT22;2869;50.432;8.680;2023-06-22T11:35:53;31.10;99.90
5689;DHT22;2869;50.432;8.680;2023-06-22T11:38:21;31.10;99.90
5689;DHT22;2869;50.432;8.680;2023-06-22T11:40:48;31.50;99.90
5689;DHT22;2869;50.432;8.680;2023-06-22T11:43:15;31.60;99.90
5689;DHT22;2869;50.432;8.680;2023-06-22T11:45:43;31.60;99.90
5689;DHT22;2869;50.432;8.680;2023-06-22T11:48:09;31.40;99.90
5689;DHT22;2869;50.432;8.680;2023-06-22T11:50:36;31.40;99.90
5689;DHT22;2869;50.432;8.680;2023-06-22T11:53:03;31.50;99.90
5689;DHT22;2869;50.432;8.680;2023-06-22T11:55:29;31.60;99.90
5689;DHT22;2869;50.432;8.680;2023-06-22T11:57:57;31.80;99.90
5689;DHT22;2869;50.432;8.680;2023-06-22T12:00:26;32.00;99.90
5689;DHT22;2869;50.432;8.680;2023-06-22T12:02:54;32.10;99.90
5689;DHT22;2869;50.432;8.680;2023-06-22T12:05:21;31.90;99.90
5689;DHT22;2869;50.432;8.680;2023-06-22T12:07:49;32.00;99.90
5689;DHT22;2869;50.432;8.680;2023-06-22T12:10:16;32.30;99.90
5689;DHT22;2869;50.432;8.680;2023-06-22T12:12:42;32.50;99.90
5689;DHT22;2869;50.432;8.680;2023-06-22T12:15:10;32.50;99.90
5689;DHT22;2869;50.432;8.680;2023-06-22T12:17:37;32.40;99.90
5689;DHT22;2869;50.432;8.680;2023-06-22T12:20:06;32.00;99.90
5689;DHT22;2869;50.432;8.680;2023-06-22T12:22:33;31.70;99.90
5689;DHT22;2869;50.432;8.680;2023-06-22T12:25:00;31.70;99.90
5689;DHT22;2869;50.432;8.680;2023-06-22T12:27:27;31.90;99.90
5689;DHT22;2869;50.432;8.680;2023-06-22T12:29:55;32.10;99.90
5689;DHT22;2869;50.432;8.680;2023-06-22T12:32:22;32.30;99.90
5689;DHT22;2869;50.432;8.680;2023-06-22T12:34:48;32.30;99.90
5689;DHT22;2869;50.432;8.680;2023-06-22T12:37:16;32.40;99.90
5689;DHT22;2869;50.432;8.680;2023-06-22T12:39:43;32.30;99.90
5689;DHT22;2869;50.432;8.680;2023-06-22T12:42:10;32.40;99.90
5689;DHT22;2869;50.432;8.680;2023-06-22T12:44:38;32.30;99.90
5689;DHT22;2869;50.432;8.680;2023-06-22T12:47:05;32.50;99.90
5689;DHT22;2869;50.432;8.680;2023-06-22T12:49:32;32.80;99.90
5689;DHT22;2869;50.432;8.680;2023-06-22T12:51:58;33.10;99.90
5689;DHT22;2869;50.432;8.680;2023-06-22T12:54:26;33.40;99.90
5689;DHT22;2869;50.432;8.680;2023-06-22T12:56:55;33.50;99.90
5689;DHT22;2869;50.432;8.680;2023-06-22T12:59:21;33.40;99.90
5689;DHT22;2869;50.432;8.680;2023-06-22T13:01:48;33.40;99.90
5689;DHT22;2869;50.432;8.680;2023-06-22T13:04:15;33.20;99.90
5689;DHT22;2869;50.432;8.680;2023-06-22T13:06:41;33.00;99.90
5689;DHT22;2869;50.432;8.680;2023-06-22T13:09:10;33.00;99.90
5689;DHT22;2869;50.432;8.680;2023-06-22T13:11:38;33.00;99.90
5689;DHT22;2869;50.432;8.680;2023-06-22T13:14:04;33.20;99.90
5689;DHT22;2869;50.432;8.680;2023-06-22T13:16:31;33.20;99.90
5689;DHT22;2869;50.432;8.680;2023-06-22T13:18:58;33.20;99.90
5689;DHT22;2869;50.432;8.680;2023-06-22T13:21:24;33.20;99.90
5689;DHT22;2869;50.432;8.680;2023-06-22T13:23:51;32.90;99.90
5689;DHT22;2869;50.432;8.680;2023-06-22T13:26:18;32.80;99.90
5689;DHT22;2869;50.432;8.680;2023-06-22T13:28:46;32.70;99.90
5689;DHT22;2869;50.432;8.680;2023-06-22T13:31:12;32.70;99.90
5689;DHT22;2869;50.432;8.680;2023-06-22T13:33:39;32.70;99.90
5689;DHT22;2869;50.432;8.680;2023-06-22T13:36:06;32.90;99.90
5689;DHT22;2869;50.432;8.680;2023-06-22T13:38:33;32.70;99.90
5689;DHT22;2869;50.432;8.680;2023-06-22T13:41:00;32.70;99.90
5689;DHT22;2869;50.432;8.680;2023-06-22T13:43:27;32.70;99.90
5689;DHT22;2869;50.432;8.680;2023-06-22T13:45:55;32.90;99.90
5689;DHT22;2869;50.432;8.680;2023-06-22T13:48:21;32.90;99.90
5689;DHT22;2869;50.432;8.680;2023-06-22T13:50:49;33.00;99.90
5689;DHT22;2869;50.432;8.680;2023-06-22T13:53:15;33.00;99.90
5689;DHT22;2869;50.432;8.680;2023-06-22T13:55:42;33.20;99.90
5689;DHT22;2869;50.432;8.680;2023-06-22T13:58:09;33.10;99.90
5689;DHT22;2869;50.432;8.680;2023-06-22T14:00:35;33.00;99.90
5689;DHT22;2869;50.432;8.680;2023-06-22T14:03:03;32.80;99.90
5689;DHT22;2869;50.432;8.680;2023-06-22T14:05:30;32.50;99.90
5689;DHT22;2869;50.432;8.680;2023-06-22T14:07:56;32.30;99.90
5689;DHT22;2869;50.432;8.680;2023-06-22T14:10:23;32.10;99.90
5689;DHT22;2869;50.432;8.680;2023-06-22T14:12:50;32.00;99.90
5689;DHT22;2869;50.432;8.680;2023-06-22T14:15:18;32.20;99.90
5689;DHT22;2869;50.432;8.680;2023-06-22T14:17:45;32.10;99.90
5689;DHT22;2869;50.432;8.680;2023-06-22T14:20:13;32.10;99.90
5689;DHT22;2869;50.432;8.680;2023-06-22T14:22:39;32.10;99.90
5689;DHT22;2869;50.432;8.680;2023-06-22T14:25:06;32.30;99.90
5689;DHT22;2869;50.432;8.680;2023-06-22T14:27:33;32.30;99.90
5689;DHT22;2869;50.432;8.680;2023-06-22T14:30:00;32.20;99.90
5689;DHT22;2869;50.432;8.680;2023-06-22T14:32:27;32.30;99.90
5689;DHT22;2869;50.432;8.680;2023-06-22T14:34:55;32.30;99.90
5689;DHT22;2869;50.432;8.680;2023-06-22T14:37:23;32.00;99.90
5689;DHT22;2869;50.432;8.680;2023-06-22T14:39:49;31.70;99.90
5689;DHT22;2869;50.432;8.680;2023-06-22T14:42:16;31.30;99.90
5689;DHT22;2869;50.432;8.680;2023-06-22T14:44:42;31.00;99.90
5689;DHT22;2869;50.432;8.680;2023-06-22T14:47:10;30.80;99.90
5689;DHT22;2869;50.432;8.680;2023-06-22T14:49:36;30.70;99.90
5689;DHT22;2869;50.432;8.680;2023-06-22T14:52:03;30.70;99.90
5689;DHT22;2869;50.432;8.680;2023-06-22T14:54:33;30.60;99.90
5689;DHT22;2869;50.432;8.680;2023-06-22T14:56:59;30.40;99.90
5689;DHT22;2869;50.432;8.680;2023-06-22T14:59:26;30.30;99.90
5689;DHT22;2869;50.432;8.680;2023-06-22T15:01:53;30.20;99.90
5689;DHT22;2869;50.432;8.680;2023-06-22T15:04:19;30.10;99.90
5689;DHT22;2869;50.432;8.680;2023-06-22T15:06:46;30.00;99.90
5689;DHT22;2869;50.432;8.680;2023-06-22T15:09:12;30.00;99.90
5689;DHT22;2869;50.432;8.680;2023-06-22T15:11:40;29.90;99.90
5689;DHT22;2869;50.432;8.680;2023-06-22T15:14:07;29.90;99.90
5689;DHT22;2869;50.432;8.680;2023-06-22T15:16:34;29.90;99.90
5689;DHT22;2869;50.432;8.680;2023-06-22T15:19:00;29.80;99.90
5689;DHT22;2869;50.432;8.680;2023-06-22T15:21:27;29.90;99.90
5689;DHT22;2869;50.432;8.680;2023-06-22T15:23:54;29.90;99.90
5689;DHT22;2869;50.432;8.680;2023-06-22T15:26:20;29.90;99.90
5689;DHT22;2869;50.432;8.680;2023-06-22T15:28:48;29.80;99.90
5689;DHT22;2869;50.432;8.680;2023-06-22T15:31:15;29.90;99.90
5689;DHT22;2869;50.432;8.680;2023-06-22T15:33:41;30.00;99.90
5689;DHT22;2869;50.432;8.680;2023-06-22T15:36:08;29.80;99.90
5689;DHT22;2869;50.432;8.680;2023-06-22T15:38:35;29.70;99.90
5689;DHT22;2869;50.432;8.680;2023-06-22T15:41:01;29.70;99.90
5689;DHT22;2869;50.432;8.680;2023-06-22T15:43:28;29.60;99.90
5689;DHT22;2869;50.432;8.680;2023-06-22T15:45:56;29.60;99.90
5689;DHT22;2869;50.432;8.680;2023-06-22T15:48:23;29.60;99.90
5689;DHT22;2869;50.432;8.680;2023-06-22T15:50:50;29.60;99.90
5689;DHT22;2869;50.432;8.680;2023-06-22T15:53:16;29.50;99.90
5689;DHT22;2869;50.432;8.680;2023-06-22T15:55:43;29.50;99.90
5689;DHT22;2869;50.432;8.680;2023-06-22T15:58:12;29.30;99.90
5689;DHT22;2869;50.432;8.680;2023-06-22T16:00:41;28.80;99.90
5689;DHT22;2869;50.432;8.680;2023-06-22T16:03:09;28.00;99.90